Tiempo atmosférico en la estación meteorológica de Cuéllar, Segovia (795 m.)

Fecha
DESCASC
Temp. máxima en grados centígrados (hora)
DESCASC
Temp. mínima en grados centígrados (hora)
DESCASC
Temp. media en grados centígrados
DESCASC
Racha de viento máxima en m/sg (hora)
DESCASC
Velocidad máxima media en intervalos de 10 minutos(hora)
DESCASC
Precipitaciones diarias en mm
DESCASC
Precipitaciones de 00:00 a 06:00 en mm
DESCASC
Precipitaciones de 06:00 a 12:00 en mm
DESCASC
Precipitaciones de 12:00 a 18:00 en mm
DESCASC
Precipitaciones de 18:00 a 24:00 en mm
DESCASC
23-11-2017 17.2 (15:00) 6.6 (21:00) 11.9 11.39 (13:40) 6.67 (14:10) 0.4 0 0 0 0.4
22-11-2017 21.9 (15:00) -7 (08:20) 7.4 9.17 (16:30) 5.28 (15:30) 0 0 0 0 0
21-11-2017 18.9 (16:40) -7.6 (07:20) 5.6 4.44 (15:40) 2.78 (14:40) 0 0 0 0 0
20-11-2017 19.4 (15:50) -8.2 (07:40) 5.6 3.33 (14:50) 2.22 (02:40) 0 0 0 0 0
19-11-2017 17.4 (15:20) -8 (-00:0) 4.7 3.89 (16:30) 2.22 (16:30) 0 0 0 0 0
18-11-2017 18.1 (15:40) -6 (-00:0) 6.1 8.06 (20:10) 6.39 (20:10) 0 0 0 0 0
17-11-2017 18.5 (15:40) -6.1 (-00:0) 6.2 3.33 (16:00) 2.22 (16:00) 0 0 0 0 0
16-11-2017 20.6 (16:10) -7.2 (-00:0) 6.7 3.06 (16:20) 2.5 (17:40) 0 0 0 0 0
15-11-2017 14.5 (16:10) -7.1 (-00:0) 3.7 4.44 (15:30) 2.78 (15:30) 0 0 0 0 0
14-11-2017 14.2 (16:00) -6.6 (-00:0) 3.8 7.78 (19:30) 6.11 (19:30) 0 0 0 0 0
13-11-2017 11.5 (12:20) -5.1 (-00:0) 3.2 12.22 (16:40) 8.89 (16:40) 0 0 0 0 0
12-11-2017 15.7 (14:50) -5.6 (-00:0) 5 6.39 (14:50) 3.89 (16:20) 0 0 0 0 0
11-11-2017 16.2 (15:20) -2.7 (-00:0) 6.8 5 (13:00) 2.22 (13:20) 0 0 0 0 0
10-11-2017 14.3 (17:00) -1.5 (-00:0) 6.4 5.83 (16:20) 3.89 (16:20) 0 0 0 0 0
09-11-2017 10.6 (15:20) -4.8 (-00:0) 2.9 8.06 (13:20) 5 (13:20) 0 0 0 0 0
08-11-2017 11.7 (15:20) -1 (-00:0) 5.3 12.78 (18:10) 9.44 (18:10) 0 0 0 0 0
07-11-2017 14.3 (15:20) -5.7 (-00:0) 4.3 5.83 (15:50) 3.33 (16:00) 0 0 0 0 0
06-11-2017 13 (15:50) -3.6 (-00:0) 4.7 8.61 (15:40) 5.28 (15:40) 0 0 0 0 0
05-11-2017 13.7 (14:30) 0.2 (00:00) 6.9 8.33 (15:30) 5 (17:40) 0.4 0.4 0 0 0
04-11-2017 17.2 (12:40) 4.6 (00:00) 10.9 8.61 (14:00) 3.89 (18:40) 1.8 0.2 0.8 0.2 0.6
03-11-2017 19.2 (15:50) 4.6 (00:00) 11.9 12.5 (05:20) 6.39 (05:20) 5.8 4.8 1 0 0
02-11-2017 18.8 (15:30) 4.2 (05:00) 11.5 10.83 (15:40) 6.94 (15:50) 0 0 0 0 0
01-11-2017 21.5 (14:50) -2.2 (-00:0) 9.6 7.78 (16:50) 5 (16:20) 0 0 0 0 0
31-10-2017 19.4 (16:40) -1.3 (-00:0) 9 6.67 (00:10) 5 (00:10) 0 0 0 0 0
30-10-2017 17.9 (14:50) -1.3 (-00:0) 8.3 11.11 (16:20) 8.33 (16:20) 0 0 0 0 0
29-10-2017 21.2 (15:00) -3.1 (-00:0) 9.1 12.22 (19:20) 8.89 (19:20) 0 0 0 0 0
28-10-2017 21.2 (14:50) 2.3 (00:00) 11.8 10.28 (23:10) 8.06 (23:10) 0 0 0 0 0
27-10-2017 26.3 (15:30) 0.9 (00:00) 13.6 6.39 (17:00) 4.72 (21:10) 0 0 0 0 0
26-10-2017 27.7 (16:50) 0.6 (00:00) 14.2 3.61 (16:30) 2.22 (08:30) 0 0 0 0 0
25-10-2017 28.4 (17:20) 0.9 (00:00) 14.6 4.17 (17:00) 2.22 (14:00) 0 0 0 0 0

Gráficas

Temp. máximas Temp. mínimas Temp. medias Precipitaciones Rachas de viento máximas Velocidades máximas media en intervalos de 10 minutos

Datos horarios

Fecha y hora oficial Temperatura (ºC) Velocidad del viento (km/h) Dirección del viento Racha (km/h) Dirección de racha Precipitación (mm) Presión (hPa) Tendencia (hPa) Humedad (%)
2017-11-23 23:00:00 13.5 10 Sur 18 Sur 0 -- -- 43
2017-11-23 22:00:00 7.4 0 Calma 4 Sudeste 0 -- -- 66
2017-11-23 21:00:00 6.6 0 Calma 10 Este 0 -- -- 66
2017-11-23 20:00:00 8.2 3 Sudeste 9 Nordeste 0 -- -- 58
2017-11-23 19:00:00 11.6 2 Oeste 11 Oeste 0 -- -- 49
2017-11-23 18:00:00 15 6 Sudoeste 21 Oeste 0 -- -- 40
2017-11-23 17:00:00 16.6 12 Oeste 28 Oeste 0 -- -- 37
2017-11-23 16:00:00 17 12 Sudoeste 29 Sudoeste 0 -- -- 42
2017-11-23 15:00:00 17.2 15 Oeste 40 Sudoeste 0 -- -- 43
2017-11-23 14:00:00 17.1 18 Sudoeste 41 Sudoeste 0 -- -- 44
2017-11-23 13:00:00 15.8 8 Sudoeste 14 Oeste 0 -- -- 46
2017-11-23 12:00:00 13.5 4 Sur 7 Sur 0 -- -- 49
2017-11-23 11:00:00 13.5 0 Calma 9 Noroeste 0 -- -- 47
2017-11-23 10:00:00 10.6 2 Noroeste 5 Oeste 0 -- -- 67
2017-11-23 09:00:00 8.7 4 Oeste 6 Sudoeste 0 -- -- 58
2017-11-23 08:00:00 8.6 0 Calma 7 Noroeste 0 -- -- 57
2017-11-23 07:00:00 10.4 4 Noroeste 9 Oeste 0 -- -- 48
2017-11-23 06:00:00 11.7 6 Oeste 15 Sudoeste 0 -- -- 44
2017-11-23 05:00:00 12.6 6 Sudoeste 15 Sur 0 -- -- 42
2017-11-23 04:00:00 12.7 6 Sur 15 Sur 0 -- -- 41
2017-11-23 03:00:00 12.2 6 Sur 18 Sudoeste 0 -- -- 41
2017-11-23 02:00:00 11.2 7 Sudoeste 17 Sur 0 -- -- 43
2017-11-23 01:00:00 10.3 0 Calma 6 Sur 0 -- -- 43
2017-11-23 00:00:00 11.6 3 Sudoeste 13 Sur 0 -- -- 40
2017-11-22 23:00:00 11.5 3 Sudoeste 14 Sur 0 -- -- 40
2017-11-22 22:00:00 8.2 2 Oeste 4 Oeste 0 -- -- 51
2017-11-22 21:00:00 8.5 2 Nordeste 4 Nordeste 0 -- -- 51
2017-11-22 20:00:00 7.3 0 Calma 4 Norte 0 -- -- 54
2017-11-22 19:00:00 8.2 0 Calma 10 Sudoeste 0 -- -- 45
2017-11-22 18:00:00 14.4 6 Sudoeste 17 Sur 0 -- -- 34
2017-11-22 17:00:00 17.4 9 Oeste 33 Oeste 0 -- -- 28
2017-11-22 16:00:00 18.6 13 Oeste 32 Oeste 0 -- -- 28
2017-11-22 15:00:00 21.9 7 Sudoeste 22 Sudoeste 0 -- -- 23
2017-11-22 14:00:00 20.6 10 Sur 19 Sur 0 -- -- 23
2017-11-22 13:00:00 19.4 11 Sudeste 19 Sudeste 0 -- -- 24
2017-11-22 12:00:00 15.9 3 Este 9 Este 0 -- -- 34
2017-11-22 11:00:00 10 6 Este 12 Este 0 -- -- 44
2017-11-22 10:00:00 5 4 Este 5 Sudeste 0 -- -- 64
2017-11-22 09:00:00 -3.7 4 Este 6 Este 0 -- -- 83
2017-11-22 08:00:00 -6.6 0 Calma 9 Este 0 -- -- 90
2017-11-22 07:00:00 -6.1 8 Este 11 Este 0 -- -- 88
2017-11-22 06:00:00 -5.8 6 Este 14 Este 0 -- -- 87
2017-11-22 05:00:00 -6.4 8 Este 11 Este 0 -- -- 88
2017-11-22 04:00:00 -4.7 8 Este 10 Este 0 -- -- 88
2017-11-22 03:00:00 -6.2 6 Este 9 Este 0 -- -- 85
2017-11-22 02:00:00 -5.2 6 Este 10 Este 0 -- -- 86
2017-11-22 01:00:00 -6.1 5 Este 7 Este 0 -- -- 84
2017-11-22 00:00:00 -5.5 4 Sudeste 8 Este 0 -- -- 83
2017-11-21 23:00:00 -3.9 6 Este 8 Este 0 -- -- 78
2017-11-21 22:00:00 -2.1 3 Sudeste 10 Este 0 -- -- 72
2017-11-21 21:00:00 -0.1 8 Este 11 Este 0 -- -- 69
2017-11-21 20:00:00 -0.5 8 Este 10 Este 0 -- -- 70
2017-11-21 19:00:00 5.9 3 Noroeste 8 Noroeste 0 -- -- 49
2017-11-21 18:00:00 11 5 Noroeste 9 Oeste 0 -- -- 38
2017-11-21 17:00:00 17.8 5 Oeste 13 Sur 0 -- -- 25
2017-11-21 16:00:00 18.7 5 Sudoeste 16 Oeste 0 -- -- 24
2017-11-21 15:00:00 18.6 8 Sudoeste 15 Oeste 0 -- -- 25
2017-11-21 14:00:00 17.3 9 Oeste 15 Oeste 0 -- -- 27
2017-11-21 13:00:00 16.6 6 Sudoeste 11 Sudoeste 0 -- -- 32
2017-11-21 12:00:00 14.7 2 Sudoeste 6 Nordeste 0 -- -- 35
2017-11-21 11:00:00 10 2 Este 8 Este 0 -- -- 45
2017-11-21 10:00:00 3.6 3 Este 5 Este 0 -- -- 67
2017-11-21 09:00:00 -3.7 4 Sudeste 8 Este 0 -- -- 85
2017-11-21 08:00:00 -6.9 4 Este 7 Este 0 -- -- 91
2017-11-21 07:00:00 -7.5 5 Este 8 Este 0 -- -- 90
2017-11-21 06:00:00 -7 4 Sudeste 5 Este 0 -- -- 91
2017-11-21 05:00:00 -6.6 5 Este 8 Este 0 -- -- 92
2017-11-21 04:00:00 -5.6 4 Este 9 Este 0 -- -- 88
2017-11-21 03:00:00 -6.4 6 Este 8 Este 0 -- -- 89
2017-11-21 02:00:00 -6.2 6 Este 9 Este 0 -- -- 89
2017-11-21 01:00:00 -5.3 5 Este 7 Este 0 -- -- 88
2017-11-21 00:00:00 -4.5 5 Este 6 Este 0 -- -- 85
2017-11-20 23:00:00 -4.7 4 Sudeste 5 Este 0 -- -- 86
2017-11-20 22:00:00 -2.5 2 Este 6 Este 0 -- -- 80
2017-11-20 21:00:00 -1 6 Este 10 Este 0 -- -- 77
2017-11-20 20:00:00 0.5 6 Este 9 Este 0 -- -- 74
2017-11-20 19:00:00 1.8 4 Este 6 Este 0 -- -- 68
2017-11-20 18:00:00 10.6 0 Calma 3 Sudoeste 0 -- -- 43
2017-11-20 17:00:00 18.5 3 Oeste 8 Sur 0 -- -- 27
2017-11-20 16:00:00 18.8 4 Sudeste 11 Este 0 -- -- 27
2017-11-20 15:00:00 18.1 5 Nordeste 12 Este 0 -- -- 28
2017-11-20 14:00:00 16.7 3 Nordeste 9 Este 0 -- -- 33
2017-11-20 13:00:00 14.8 3 Oeste 6 Nordeste 0 -- -- 29
2017-11-20 12:00:00 12.1 3 Nordeste 5 Este 0 -- -- 45
2017-11-20 11:00:00 8.1 0 Calma 3 Este 0 -- -- 52
2017-11-20 10:00:00 4.4 0 Calma 2 Este 0 -- -- 65
2017-11-20 09:00:00 -3.8 2 Sudeste 5 Este 0 -- -- 85
2017-11-20 08:00:00 -8.2 3 Sudeste 6 Este 0 -- -- 94
2017-11-20 07:00:00 -8 3 Sudeste 6 Sudeste 0 -- -- 93
2017-11-20 06:00:00 -7.7 4 Sudeste 6 Este 0 -- -- 93
2017-11-20 05:00:00 -6.5 3 Este 5 Este 0 -- -- 92
2017-11-20 04:00:00 -6.8 2 Sudeste 6 Sudeste 0 -- -- 93
2017-11-20 03:00:00 -6.3 4 Este 10 Este 0 -- -- 92
2017-11-20 02:00:00 -6.2 4 Este 7 Este 0 -- -- 91
2017-11-20 01:00:00 -5.3 4 Este 8 Este 0 -- -- 90
2017-11-20 00:00:00 -5 3 Este 6 Sudeste 0 -- -- 89
2017-11-19 23:00:00 -4.8 4 Sudeste 5 Sudeste 0 -- -- 88
2017-11-19 22:00:00 -3.5 3 Sudeste 8 Este 0 -- -- 87
2017-11-19 21:00:00 -2.5 5 Este 6 Este 0 -- -- 85
2017-11-19 20:00:00 0.9 2 Este 4 Este 0 -- -- 73
2017-11-19 19:00:00 3.9 0 Calma 5 Este 0 -- -- 60
2017-11-19 18:00:00 9.3 2 Este 9 Norte 0 -- -- 45
2017-11-19 17:00:00 15.5 8 Norte 14 Oeste 0 -- -- 35
2017-11-19 16:00:00 17.4 5 Sudoeste 12 Oeste 0 -- -- 35
2017-11-19 15:00:00 16.4 3 Oeste 12 Oeste 0 -- -- 37
2017-11-19 14:00:00 15.6 5 Oeste 10 Oeste 0 -- -- 41
2017-11-19 13:00:00 15.8 0 Calma 6 Nordeste 0 -- -- 40
2017-11-19 12:00:00 12.1 2 Este 5 Este 0 -- -- 48
2017-11-19 11:00:00 8.7 0 Calma 4 Sudeste 0 -- -- 58
2017-11-19 10:00:00 2 2 Este 3 Este 0 -- -- 80
2017-11-19 09:00:00 -3.6 0 Calma 2 Este 0 -- -- 93
2017-11-19 08:00:00 -7.5 0 Calma 2 Este 0 -- -- 94
2017-11-19 07:00:00 -7.5 2 Sudeste 7 Este 0 -- -- 95
2017-11-19 06:00:00 -7.3 5 Este 7 Este 0 -- -- 94
2017-11-19 05:00:00 -7.1 3 Sudeste 8 Este 0 -- -- 95
2017-11-19 04:00:00 -6 6 Este 8 Este 0 -- -- 96
2017-11-19 03:00:00 -5.6 3 Este 6 Este 0 -- -- 97
2017-11-19 02:00:00 -5.8 4 Este 8 Este 0 -- -- 96
2017-11-19 01:00:00 -5.1 5 Este 9 Este 0 -- -- 94
2017-11-19 00:00:00 -4.3 4 Este 6 Sudeste 0 -- -- 95
2017-11-18 23:00:00 -2.2 2 Nordeste 7 Este 0 -- -- 96
2017-11-18 22:00:00 1.5 5 Este 16 Nordeste 0 -- -- 86
2017-11-18 21:00:00 5.5 9 Este 29 Norte 0 -- -- 79
2017-11-18 20:00:00 7.5 21 Norte 27 Norte 0 -- -- 70
2017-11-18 19:00:00 9 17 Norte 25 Norte 0 -- -- 58
2017-11-18 18:00:00 10.8 13 Norte 18 Norte 0 -- -- 52
2017-11-18 17:00:00 16.5 11 Norte 20 Norte 0 -- -- 36
2017-11-18 16:00:00 18 10 Nordeste 17 Norte 0 -- -- 36
2017-11-18 15:00:00 18 9 Nordeste 18 Nordeste 0 -- -- 36
2017-11-18 14:00:00 16.7 9 Nordeste 17 Nordeste 0 -- -- 38
2017-11-18 13:00:00 16.7 4 Norte 10 Este 0 -- -- 39
2017-11-18 12:00:00 14.1 4 Nordeste 9 Este 0 -- -- 46
2017-11-18 11:00:00 10 4 Este 6 Este 0 -- -- 59
2017-11-18 10:00:00 4.7 2 Sudeste 6 Este 0 -- -- 75
2017-11-18 09:00:00 -1.6 4 Este 7 Este 0 -- -- 91
2017-11-18 08:00:00 -5.7 4 Este 8 Este 0 -- -- 96
2017-11-18 07:00:00 -4.9 7 Este 9 Este 0 -- -- 95
2017-11-18 06:00:00 -4.8 4 Este 8 Este 0 -- -- 95
2017-11-18 05:00:00 -4 6 Este 8 Este 0 -- -- 94
2017-11-18 04:00:00 -3.1 6 Este 10 Nordeste 0 -- -- 92
2017-11-18 03:00:00 -4.5 6 Sudeste 8 Este 0 -- -- 93
2017-11-18 02:00:00 -4.5 3 Sudeste -- -- 0 -- -- 92
2017-11-18 01:00:00 -3.6 0 Calma 8 Sudeste 0 -- -- 92
2017-11-18 00:00:00 -2.3 5 Este 6 Este 0 -- -- 89
2017-11-17 23:00:00 -0.9 0 Calma 5 Este 0 -- -- 88
2017-11-17 22:00:00 -0.3 3 Este 6 Este 0 -- -- 85
2017-11-17 21:00:00 1.3 0 Calma 9 Nordeste 0 -- -- 76
2017-11-17 20:00:00 3.1 4 Este 8 Sudeste 0 -- -- 74
2017-11-17 19:00:00 4.6 0 Calma 3 Oeste 0 -- -- 69
2017-11-17 18:00:00 11.8 4 Oeste 6 Norte 0 -- -- 51
2017-11-17 17:00:00 18.3 5 Nordeste 9 Oeste 0 -- -- 32
2017-11-17 16:00:00 17.6 8 Oeste 12 Oeste 0 -- -- 36
2017-11-17 15:00:00 17.7 4 Oeste 10 Oeste 0 -- -- 35
2017-11-17 14:00:00 16.6 5 Oeste 12 Noroeste 0 -- -- 37
2017-11-17 13:00:00 14.9 5 Oeste 10 Oeste 0 -- -- 41
2017-11-17 12:00:00 13.9 3 Sudoeste 8 Sudoeste 0 -- -- 42
2017-11-17 11:00:00 10 0 Calma 3 Sur 0 -- -- 50
2017-11-17 10:00:00 6.2 0 Calma 4 Este 0 -- -- 67
2017-11-17 09:00:00 -1.9 3 Este 5 Este 0 -- -- 86
2017-11-17 08:00:00 -5.5 3 Este 5 Este 0 -- -- 94
2017-11-17 07:00:00 -5.5 3 Este 5 Este 0 -- -- 94
2017-11-17 06:00:00 -5.7 4 Este 5 Sudeste 0 -- -- 95
2017-11-17 05:00:00 -5.1 5 Este 6 Este 0 -- -- 92
2017-11-17 04:00:00 -5.2 4 Este 6 Sudeste 0 -- -- 93
2017-11-17 03:00:00 -4.6 5 Este 8 Este 0 -- -- 92
2017-11-17 02:00:00 -4.5 3 Este 5 Este 0 -- -- 91
2017-11-17 01:00:00 -3.8 3 Este 5 Sudeste 0 -- -- 91
2017-11-17 00:00:00 -3.5 3 Este 5 Este 0 -- -- 87
2017-11-16 23:00:00 -3 2 Este 5 Este 0 -- -- 87
2017-11-16 22:00:00 -0.8 3 Este 4 Este 0 -- -- 83
2017-11-16 21:00:00 0.7 3 Sudeste 5 Sudeste 0 -- -- 77
2017-11-16 20:00:00 2.8 0 Calma 6 Este 0 -- -- 70
2017-11-16 19:00:00 8.1 0 Calma 5 Nordeste 0 -- -- 54
2017-11-16 18:00:00 11.3 4 Nordeste 10 Nordeste 0 -- -- 46
2017-11-16 17:00:00 18.6 6 Noroeste 11 Norte 0 -- -- 29
2017-11-16 16:00:00 20.4 5 Norte 10 Nordeste 0 -- -- 25
2017-11-16 15:00:00 19.2 3 Sudeste 7 Sudoeste 0 -- -- 30
2017-11-16 14:00:00 17.1 5 Oeste 8 Noroeste 0 -- -- 33
2017-11-16 13:00:00 15.9 3 Sur 7 Oeste 0 -- -- 32
2017-11-16 12:00:00 13.3 2 Sur 4 Nordeste 0 -- -- 40
2017-11-16 11:00:00 9.6 2 Sur 5 Este 0 -- -- 51
2017-11-16 10:00:00 3.7 4 Este 5 Sudeste 0 -- -- 76
2017-11-16 09:00:00 -3 2 Sudeste 5 Este 0 -- -- 86
2017-11-16 08:00:00 -6.8 4 Este 5 Este 0 -- -- 94
2017-11-16 07:00:00 -7.1 3 Sudeste 5 Este 0 -- -- 94
2017-11-16 06:00:00 -6.5 5 Este 6 Este 0 -- -- 95
2017-11-16 05:00:00 -5.5 3 Este 7 Este 0 -- -- 93
2017-11-16 04:00:00 -6.6 4 Este 8 Este 0 -- -- 94
2017-11-16 03:00:00 -5.7 3 Este 6 Este 0 -- -- 93
2017-11-16 02:00:00 -4.9 2 Este 8 Este 0 -- -- 94
2017-11-16 01:00:00 -4.9 4 Sudeste 9 Este 0 -- -- 94
2017-11-16 00:00:00 -4.3 6 Este 8 Este 0 -- -- 90
2017-11-15 23:00:00 -4.3 4 Sudeste 7 Este 0 -- -- 89
2017-11-15 22:00:00 -2.7 5 Este 7 Este 0 -- -- 87
2017-11-15 21:00:00 -1.1 3 Este 8 Este 0 -- -- 86
2017-11-15 20:00:00 -0.9 3 Sudeste 4 Este 0 -- -- 83
2017-11-15 19:00:00 1.9 0 Calma 5 Oeste 0 -- -- 75
2017-11-15 18:00:00 7.9 3 Noroeste 9 Oeste 0 -- -- 53
2017-11-15 17:00:00 13.5 5 Oeste 12 Oeste 0 -- -- 40
2017-11-15 16:00:00 13.6 7 Sudoeste 16 Oeste 0 -- -- 39
2017-11-15 15:00:00 12.7 6 Oeste 14 Sur 0 -- -- 40
2017-11-15 14:00:00 12.9 6 Sur 14 Sur 0 -- -- 41
2017-11-15 13:00:00 11.5 5 Sudoeste 12 Oeste 0 -- -- 45
2017-11-15 12:00:00 10.1 2 Sudoeste 10 Oeste 0 -- -- 48
2017-11-15 11:00:00 6 3 Sudoeste 7 Sudoeste 0 -- -- 60
2017-11-15 10:00:00 2.1 2 Sur 4 Este 0 -- -- 73
2017-11-15 09:00:00 -2.5 0 Calma 2 Este 0 -- -- 85
2017-11-15 08:00:00 -6.9 0 Calma 2 Sudeste 0 -- -- 95
2017-11-15 07:00:00 -5.7 2 Este 5 Nordeste 0 -- -- 96
2017-11-15 06:00:00 -6.7 4 Sudeste 9 Este 0 -- -- 91
2017-11-15 05:00:00 -5.8 6 Este 12 Este 0 -- -- 91
2017-11-15 04:00:00 -5.3 4 Sudeste 10 Este 0 -- -- 91
2017-11-15 03:00:00 -6 4 Este 7 Este 0 -- -- 91
2017-11-15 02:00:00 -4.7 4 Este 10 Este 0 -- -- 91
2017-11-15 01:00:00 -5.3 5 Este 9 Este 0 -- -- 86
2017-11-15 00:00:00 -4 4 Sudeste 7 Este 0 -- -- 85
2017-11-14 23:00:00 0.5 3 Sudeste 18 Norte 0 -- -- 70
2017-11-14 22:00:00 3.7 16 Norte 27 Norte 0 -- -- 60
2017-11-14 21:00:00 4 17 Norte 24 Norte 0 -- -- 59
2017-11-14 20:00:00 5.3 19 Norte 28 Norte 0 -- -- 55
2017-11-14 19:00:00 6.1 16 Norte 19 Norte 0 -- -- 51
2017-11-14 18:00:00 8.1 7 Norte 18 Norte 0 -- -- 45
2017-11-14 17:00:00 12.7 11 Norte 20 Nordeste 0 -- -- 36
2017-11-14 16:00:00 14.2 11 Nordeste 22 Norte 0 -- -- 33
2017-11-14 15:00:00 13.6 11 Nordeste 24 Nordeste 0 -- -- 35
2017-11-14 14:00:00 13.1 6 Nordeste 17 Norte 0 -- -- 41
2017-11-14 13:00:00 11.5 10 Nordeste 17 Nordeste 0 -- -- 47
2017-11-14 12:00:00 8.8 5 Este 11 Este 0 -- -- 61
2017-11-14 11:00:00 5.8 3 Sudeste 7 Sudeste 0 -- -- 72
2017-11-14 10:00:00 3.4 0 Calma 4 Nordeste 0 -- -- 82
2017-11-14 09:00:00 -1.4 0 Calma 4 Sudeste 0 -- -- 97
2017-11-14 08:00:00 -5.9 0 Calma 5 Norte 0 -- -- 95
2017-11-14 07:00:00 -4.4 2 Sudoeste 6 Sudeste 0 -- -- 97
2017-11-14 06:00:00 -4.9 0 Calma 6 Sur 0 -- -- 97
2017-11-14 05:00:00 -2.9 3 Oeste 8 Oeste 0 -- -- 96
2017-11-14 04:00:00 -2.6 3 Oeste 10 Norte 0 -- -- 95
2017-11-14 03:00:00 -1.4 6 Noroeste 9 Noroeste 0 -- -- 95
2017-11-14 02:00:00 -1 7 Nordeste 13 Nordeste 0 -- -- 94
2017-11-14 01:00:00 -0.1 6 Nordeste 15 Norte 0 -- -- 93
2017-11-14 00:00:00 0.4 11 Nordeste 17 Nordeste 0 -- -- 89
2017-11-13 23:00:00 1.4 18 Nordeste 22 Nordeste 0 -- -- 87
2017-11-13 22:00:00 2.1 9 Nordeste 41 Nordeste 0 -- -- 83
2017-11-13 21:00:00 3 20 Nordeste 29 Nordeste 0 -- -- 80
2017-11-13 20:00:00 3.1 18 Nordeste 26 Nordeste 0 -- -- 79
2017-11-13 19:00:00 3.9 14 Nordeste 34 Nordeste 0 -- -- 77
2017-11-13 18:00:00 5.8 23 Nordeste 36 Norte 0 -- -- 68
2017-11-13 17:00:00 8.6 27 Nordeste 44 Nordeste 0 -- -- 54
2017-11-13 16:00:00 9.7 31 Nordeste 40 Nordeste 0 -- -- 54
2017-11-13 15:00:00 10 26 Norte 44 Norte 0 -- -- 50
2017-11-13 14:00:00 9.5 25 Norte 42 Norte 0 -- -- 55
2017-11-13 13:00:00 8.9 28 Norte 44 Norte 0 -- -- 56
2017-11-13 12:00:00 10.6 23 Nordeste 44 Norte 0 -- -- 57
2017-11-13 11:00:00 9.7 22 Nordeste 32 Norte 0 -- -- 64
2017-11-13 10:00:00 5.6 2 Sudoeste 4 Noroeste 0 -- -- 78
2017-11-13 09:00:00 0.4 0 Calma 3 Sur 0 -- -- 90
2017-11-13 08:00:00 -3.2 0 Calma 6 Este 0 -- -- 98
2017-11-13 07:00:00 -1.7 0 Calma 5 Sudeste 0 -- -- 96
2017-11-13 06:00:00 -0.4 3 Sudeste 5 Sudeste 0 -- -- 97
2017-11-13 05:00:00 -1.9 2 Sudeste 6 Este 0 -- -- 97
2017-11-13 04:00:00 -4.9 5 Este 9 Este 0 -- -- 97
2017-11-13 03:00:00 -4 0 Calma 5 Sudeste 0 -- -- 96
2017-11-13 02:00:00 -2.9 0 Calma 8 Oeste 0 -- -- 95
2017-11-13 01:00:00 -2.5 2 Este 5 Este 0 -- -- 96
2017-11-13 00:00:00 -1.6 3 Este 6 Este 0 -- -- 95
2017-11-12 23:00:00 -1.9 4 Este 7 Sudeste 0 -- -- 93
2017-11-12 22:00:00 0.7 0 Calma 7 Nordeste 0 -- -- 93
2017-11-12 21:00:00 2.8 2 Este 8 Sudeste 0 -- -- 87
2017-11-12 20:00:00 3.7 0 Calma 13 Norte 0 -- -- 81
2017-11-12 19:00:00 5.6 0 Calma 8 Noroeste 0 -- -- 75
2017-11-12 18:00:00 11.4 5 Noroeste 17 Oeste 0 -- -- 56
2017-11-12 17:00:00 14.7 9 Noroeste 22 Noroeste 0 -- -- 49
2017-11-12 16:00:00 15.5 13 Noroeste 22 Noroeste 0 -- -- 48
2017-11-12 15:00:00 15.5 12 Oeste 23 Oeste 0 -- -- 49
2017-11-12 14:00:00 14.6 11 Oeste 19 Oeste 0 -- -- 55
2017-11-12 13:00:00 13.6 9 Oeste 18 Sudoeste 0 -- -- 57
2017-11-12 12:00:00 12 6 Oeste 11 Sudoeste 0 -- -- 62
2017-11-12 11:00:00 9.6 3 Sudoeste 8 Norte 0 -- -- 69
2017-11-12 10:00:00 6.4 0 Calma 2 Nordeste 0 -- -- 78
2017-11-12 09:00:00 -0.3 2 Este 6 Este 0 -- -- 92
2017-11-12 08:00:00 -5.1 3 Este 6 Este 0 -- -- 97
2017-11-12 07:00:00 -4.6 3 Este 8 Este 0 -- -- 98
2017-11-12 06:00:00 -5 5 Este 8 Este 0 -- -- 97
2017-11-12 05:00:00 -4.9 5 Este 6 Este 0 -- -- 97
2017-11-12 04:00:00 -4.1 3 Este 6 Este 0 -- -- 99
2017-11-12 03:00:00 -3.7 5 Este 7 Este 0 -- -- 98
2017-11-12 02:00:00 -3.9 2 Sudeste 5 Sudeste 0 -- -- 98
2017-11-12 01:00:00 -3 4 Sudeste 6 Este 0 -- -- 96
2017-11-12 00:00:00 -2.3 0 Calma 4 Sudeste 0 -- -- 98
2017-11-11 23:00:00 -1.9 3 Sudeste 5 Este 0 -- -- 97
2017-11-11 22:00:00 -0.7 4 Este 7 Este 0 -- -- 97
2017-11-11 21:00:00 2.6 6 Este 10 Este 0 -- -- 92
2017-11-11 20:00:00 3 0 Calma 11 Nordeste 0 -- -- 90
2017-11-11 19:00:00 5.3 4 Nordeste 5 Nordeste 0 -- -- 85
2017-11-11 18:00:00 10 4 Este 8 Este 0 -- -- 69
2017-11-11 17:00:00 15.1 5 Este 11 Este 0 -- -- 53
2017-11-11 16:00:00 15 6 Este 13 Sudeste 0 -- -- 55
2017-11-11 15:00:00 14.4 8 Este 16 Sudeste 0 -- -- 55
2017-11-11 14:00:00 14.1 5 Sudeste 14 Nordeste 0 -- -- 59
2017-11-11 13:00:00 12.9 6 Nordeste 18 Nordeste 0 -- -- 62
2017-11-11 12:00:00 12.5 5 Este 10 Nordeste 0 -- -- 69
2017-11-11 11:00:00 6.2 3 Este 6 Este 0 -- -- 97
2017-11-11 10:00:00 1.8 3 Este 5 Sudeste 0 -- -- 99
2017-11-11 09:00:00 -0.9 3 Este 6 Sudeste 0 -- -- 99
2017-11-11 08:00:00 -1.9 4 Este 6 Este 0 -- -- 100
2017-11-11 07:00:00 -2.1 2 Este 4 Este 0 -- -- 99
2017-11-11 06:00:00 -1.8 0 Calma 5 Sudeste 0 -- -- 100
2017-11-11 05:00:00 -0.7 0 Calma 3 Noroeste 0 -- -- 99
2017-11-11 04:00:00 0.5 0 Calma 6 Sudeste 0 -- -- 99
2017-11-11 03:00:00 0.7 2 Sudeste 3 Sudeste 0 -- -- 98
2017-11-11 02:00:00 1.1 0 Calma 3 Oeste 0 -- -- 98
2017-11-11 01:00:00 1.8 0 Calma 8 Nordeste 0 -- -- 98
2017-11-11 00:00:00 1.9 3 Nordeste 7 Nordeste 0 -- -- 98
2017-11-10 23:00:00 2 0 Calma 8 Este 0 -- -- 97
2017-11-10 22:00:00 3.6 6 Este 12 Este 0 -- -- 97
2017-11-10 21:00:00 3.8 5 Este 8 Nordeste 0 -- -- 93
2017-11-10 20:00:00 4.7 4 Este 15 Nordeste 0 -- -- 89
2017-11-10 19:00:00 7.3 2 Sudeste 13 Nordeste 0 -- -- 82
2017-11-10 18:00:00 11 6 Nordeste 14 Nordeste 0 -- -- 69
2017-11-10 17:00:00 14.3 11 Nordeste 21 Nordeste 0 -- -- 59
2017-11-10 16:00:00 13.3 11 Nordeste 17 Nordeste 0 -- -- 62
2017-11-10 15:00:00 13.1 4 Sudoeste 12 Oeste 0 -- -- 58
2017-11-10 14:00:00 11.4 5 Oeste 16 Oeste 0 -- -- 63
2017-11-10 13:00:00 11.1 6 Oeste 14 Oeste 0 -- -- 60
2017-11-10 12:00:00 8.6 10 Sudoeste 14 Sudoeste 0 -- -- 65
2017-11-10 11:00:00 6.3 4 Sudoeste 6 Sudoeste 0 -- -- 71
2017-11-10 10:00:00 3.6 3 Sudeste 5 Sur 0 -- -- 83
2017-11-10 09:00:00 1.3 0 Calma 4 Este 0 -- -- 95
2017-11-10 08:00:00 -0.5 0 Calma 3 Oeste 0 -- -- 93
2017-11-10 07:00:00 0.9 2 Sur 4 Sudoeste 0 -- -- 90
2017-11-10 06:00:00 2.2 0 Calma 3 Sudoeste 0 -- -- 86
2017-11-10 05:00:00 1.9 0 Calma 3 Oeste 0 -- -- 85
2017-11-10 04:00:00 2.3 2 Oeste 3 Oeste 0 -- -- 83
2017-11-10 03:00:00 2 0 Calma 8 Sudoeste 0 -- -- 84
2017-11-10 02:00:00 1.8 0 Calma 3 Sudoeste 0 -- -- 87
2017-11-10 01:00:00 0.8 0 Calma 8 Oeste 0 -- -- 88
2017-11-10 00:00:00 -1.5 2 Sudeste 4 Norte 0 -- -- 93
2017-11-09 23:00:00 -2.6 2 Sudeste 6 Nordeste 0 -- -- 89
2017-11-09 22:00:00 -1.4 0 Calma 5 Nordeste 0 -- -- 88
2017-11-09 21:00:00 1.2 6 Nordeste 11 Nordeste 0 -- -- 79
2017-11-09 20:00:00 3.5 8 Norte 24 Norte 0 -- -- 70
2017-11-09 19:00:00 4.7 4 Nordeste 22 Norte 0 -- -- 70
2017-11-09 18:00:00 7.6 9 Norte 19 Norte 0 -- -- 62
2017-11-09 17:00:00 8.1 12 Norte 24 Nordeste 0 -- -- 61
2017-11-09 16:00:00 9.4 10 Norte 25 Norte 0 -- -- 56
2017-11-09 15:00:00 7.9 12 Norte 22 Norte 0 -- -- 61
2017-11-09 14:00:00 7.5 8 Norte 29 Nordeste 0 -- -- 64
2017-11-09 13:00:00 7.8 15 Nordeste 22 Norte 0 -- -- 62
2017-11-09 12:00:00 5.9 5 Oeste 13 Oeste 0 -- -- 76
2017-11-09 11:00:00 4 4 Oeste 9 Oeste 0 -- -- 85
2017-11-09 10:00:00 1.2 3 Sudoeste 5 Oeste 0 -- -- 94
2017-11-09 09:00:00 -1.7 0 Calma 3 Oeste 0 -- -- 97
2017-11-09 08:00:00 -3.7 2 Oeste 2 Oeste 0 -- -- 99
2017-11-09 07:00:00 -2.2 0 Calma 6 Sudeste 0 -- -- 97
2017-11-09 06:00:00 -3.6 0 Calma 6 Oeste 0 -- -- 98
2017-11-09 05:00:00 -4.2 3 Oeste 5 Oeste 0 -- -- 97
2017-11-09 04:00:00 -3.9 0 Calma 6 Este 0 -- -- 97
2017-11-09 03:00:00 -3.5 3 Este 8 Nordeste 0 -- -- 97
2017-11-09 02:00:00 -0.5 8 Norte 13 Norte 0 -- -- 94
2017-11-09 01:00:00 0 11 Norte 13 Norte 0 -- -- 95
2017-11-09 00:00:00 -1 4 Nordeste 11 Nordeste 0 -- -- 95
2017-11-08 23:00:00 0.6 10 Nordeste 15 Norte 0 -- -- 92
2017-11-08 22:00:00 1.9 13 Nordeste 23 Nordeste 0 -- -- 88
2017-11-08 21:00:00 3 14 Nordeste 21 Nordeste 0 -- -- 85
2017-11-08 20:00:00 4 10 Nordeste 20 Nordeste 0 -- -- 83
2017-11-08 19:00:00 4 16 Nordeste 46 Nordeste 0 -- -- 86
2017-11-08 18:00:00 9.4 15 Noroeste 37 Noroeste 0 -- -- 55
2017-11-08 17:00:00 10 11 Noroeste 30 Norte 0 -- -- 48
2017-11-08 16:00:00 10.8 11 Noroeste 29 Noroeste 0 -- -- 48
2017-11-08 15:00:00 11.6 13 Oeste 25 Oeste 0 -- -- 45
2017-11-08 14:00:00 9.5 10 Noroeste 23 Noroeste 0 -- -- 54
2017-11-08 13:00:00 11 9 Oeste 18 Oeste 0 -- -- 53
2017-11-08 12:00:00 10.9 4 Norte 15 Noroeste 0 -- -- 58
2017-11-08 11:00:00 9.2 10 Nordeste 15 Este 0 -- -- 64
2017-11-08 10:00:00 6.3 9 Nordeste 14 Nordeste 0 -- -- 80
2017-11-08 09:00:00 5.1 5 Norte 11 Norte 0 -- -- 87
2017-11-08 08:00:00 3 9 Nordeste 10 Norte 0 -- -- 97
2017-11-08 07:00:00 1.1 0 Calma 4 Este 0 -- -- 96
2017-11-08 06:00:00 1.5 0 Calma 6 Norte 0 -- -- 95
2017-11-08 05:00:00 3.6 0 Calma 9 Nordeste 0 -- -- 90
2017-11-08 04:00:00 4.2 8 Nordeste 16 Nordeste 0 -- -- 87
2017-11-08 03:00:00 5 8 Nordeste 16 Nordeste 0 -- -- 88
2017-11-08 02:00:00 5.8 10 Nordeste 15 Nordeste 0 -- -- 92
2017-11-08 01:00:00 3.6 0 Calma 3 Sur 0 -- -- 92
2017-11-08 00:00:00 3.7 0 Calma 2 Este 0 -- -- 91
2017-11-07 23:00:00 3.9 0 Calma 4 Este 0 -- -- 91
2017-11-07 22:00:00 3.5 2 Este 4 Este 0 -- -- 90
2017-11-07 21:00:00 4 4 Este 6 Este 0 -- -- 89
2017-11-07 20:00:00 4.6 3 Este 8 Este 0 -- -- 84
2017-11-07 19:00:00 4.4 2 Este 6 Sudoeste 0 -- -- 78
2017-11-07 18:00:00 10.2 4 Oeste 15 Oeste 0 -- -- 59
2017-11-07 17:00:00 13.9 7 Oeste 18 Oeste 0 -- -- 47
2017-11-07 16:00:00 13.6 12 Oeste 21 Oeste 0 -- -- 48
2017-11-07 15:00:00 13.4 6 Oeste 18 Sudoeste 0 -- -- 50
2017-11-07 14:00:00 12.4 7 Oeste 15 Sudoeste 0 -- -- 55
2017-11-07 13:00:00 10.8 7 Oeste 15 Oeste 0 -- -- 58
2017-11-07 12:00:00 9.5 4 Oeste 11 Sudoeste 0 -- -- 63
2017-11-07 11:00:00 7.8 4 Sudoeste 8 Sudoeste 0 -- -- 69
2017-11-07 10:00:00 3.8 2 Este 4 Este 0 -- -- 84
2017-11-07 09:00:00 -0.4 2 Este 4 Este 0 -- -- 90
2017-11-07 08:00:00 -5.5 2 Este 4 Este 0 -- -- 98
2017-11-07 07:00:00 -5.2 0 Calma 2 Este 0 -- -- 97
2017-11-07 06:00:00 -3.9 3 Nordeste 4 Nordeste 0 -- -- 99
2017-11-07 05:00:00 -4.5 0 Calma 2 Este 0 -- -- 98
2017-11-07 04:00:00 -3.8 0 Calma 5 Sudeste 0 -- -- 98
2017-11-07 03:00:00 -2.9 2 Sudoeste 6 Norte 0 -- -- 95
2017-11-07 02:00:00 -2.9 2 Este 7 Sur 0 -- -- 96
2017-11-07 01:00:00 -2 4 Sudeste 8 Este 0 -- -- 94
2017-11-07 00:00:00 0.3 0 Calma 9 Nordeste 0 -- -- 93
2017-11-06 23:00:00 1.4 7 Nordeste 8 Nordeste 0 -- -- 91
2017-11-06 22:00:00 2.3 8 Norte 14 Norte 0 -- -- 86
2017-11-06 21:00:00 4 12 Norte 17 Norte 0 -- -- 81
2017-11-06 20:00:00 5.4 6 Norte 14 Nordeste 0 -- -- 78
2017-11-06 19:00:00 5.9 10 Nordeste 23 Nordeste 0 -- -- 75
2017-11-06 18:00:00 8.3 10 Nordeste 21 Nordeste 0 -- -- 63
2017-11-06 17:00:00 11 17 Norte 25 Norte 0 -- -- 52
2017-11-06 16:00:00 11 19 Norte 31 Nordeste 0 -- -- 55
2017-11-06 15:00:00 12.4 14 Norte 29 Norte 0 -- -- 51
2017-11-06 14:00:00 12.2 14 Nordeste 26 Norte 0 -- -- 53
2017-11-06 13:00:00 11.5 12 Nordeste 22 Nordeste 0 -- -- 61
2017-11-06 12:00:00 8.7 6 Nordeste 12 Nordeste 0 -- -- 73
2017-11-06 11:00:00 6.5 3 Sudeste 10 Este 0 -- -- 83
2017-11-06 10:00:00 5.5 0 Calma 4 Sur 0 -- -- 89
2017-11-06 09:00:00 0.2 0 Calma 3 Este 0 -- -- 98
2017-11-06 08:00:00 -1.8 0 Calma 3 Este 0 -- -- 98
2017-11-06 07:00:00 -2.5 2 Este 4 Este 0 -- -- 99
2017-11-06 06:00:00 -3.3 -- -- -- -- 0 -- -- 98
2017-11-06 05:00:00 -3.4 0 Calma 3 Sur 0 -- -- 98
2017-11-06 04:00:00 -3.1 0 Calma 2 Este 0 -- -- 98
2017-11-06 03:00:00 -3 0 Calma 4 Sudeste 0 -- -- 97
2017-11-06 02:00:00 -1.2 0 Calma 5 Oeste 0 -- -- 98
2017-11-06 01:00:00 -0.9 0 Calma 3 Norte 0 -- -- 95
2017-11-06 00:00:00 0.2 0 Calma 4 Este 0 -- -- 94
2017-11-05 23:00:00 1.2 3 Sur 16 Norte 0 -- -- 87
2017-11-05 22:00:00 5.2 11 Norte 18 Noroeste 0 -- -- 80
2017-11-05 21:00:00 6 13 Noroeste 17 Noroeste 0 -- -- 78
2017-11-05 20:00:00 7.2 9 Noroeste 17 Noroeste 0 -- -- 74
2017-11-05 19:00:00 9.6 13 Noroeste 22 Noroeste 0 -- -- 64
2017-11-05 18:00:00 10.8 13 Noroeste 28 Noroeste 0 -- -- 56
2017-11-05 17:00:00 11.4 12 Noroeste 23 Noroeste 0 -- -- 58
2017-11-05 16:00:00 12.5 16 Noroeste 30 Noroeste 0 -- -- 54
2017-11-05 15:00:00 12.6 17 Noroeste 25 Norte 0 -- -- 54
2017-11-05 14:00:00 11.8 7 Noroeste 18 Noroeste 0 -- -- 57
2017-11-05 13:00:00 11.6 8 Noroeste 20 Norte 0 -- -- 59
2017-11-05 12:00:00 10.9 10 Norte 15 Norte 0 -- -- 66
2017-11-05 11:00:00 10 10 Nordeste 15 Nordeste 0 -- -- 72
2017-11-05 10:00:00 8.8 9 Nordeste 15 Nordeste 0 -- -- 79
2017-11-05 09:00:00 7.4 2 Norte 14 Norte 0 -- -- 90
2017-11-05 08:00:00 5.1 3 Norte 15 Nordeste 0 -- -- 94
2017-11-05 07:00:00 7.4 10 Nordeste 21 Nordeste 0 -- -- 88
2017-11-05 06:00:00 8.1 9 Nordeste 18 Nordeste 0.2 -- -- 94
2017-11-05 05:00:00 8.7 8 Norte 12 Nordeste 0.2 -- -- 95
2017-11-05 04:00:00 8.7 8 Norte 10 Norte 0 -- -- 99
2017-11-05 03:00:00 7.4 3 Sudeste 5 Sudeste 0 -- -- 99
2017-11-05 02:00:00 7.2 3 Oeste 5 Noroeste 0 -- -- 99
2017-11-05 01:00:00 6 0 Calma 3 Oeste 0 -- -- 99
2017-11-05 00:00:00 7.9 3 Oeste 5 Noroeste 0 -- -- 97
2017-11-04 23:00:00 8.4 3 Sudoeste 7 Noroeste 0 -- -- 98
2017-11-04 22:00:00 8.1 0 Calma 6 Norte 0.2 -- -- 98
2017-11-04 21:00:00 8.2 3 Oeste 8 Noroeste 0 -- -- 97
2017-11-04 20:00:00 9 0 Calma 10 Noroeste 0 -- -- 94
2017-11-04 19:00:00 10.7 9 Noroeste 24 Noroeste 0.4 -- -- 92
2017-11-04 18:00:00 12.3 8 Oeste 14 Oeste 0 -- -- 80
2017-11-04 17:00:00 13 9 Oeste 17 Oeste 0 -- -- 79
2017-11-04 16:00:00 15 6 Oeste 15 Noroeste 0 -- -- 69
2017-11-04 15:00:00 12.8 4 Sudoeste 19 Noroeste 0.2 -- -- 85
2017-11-04 14:00:00 14.1 11 Noroeste 31 Oeste 0 -- -- 70
2017-11-04 13:00:00 15.5 4 Sur 9 Sur 0 -- -- 68
2017-11-04 12:00:00 13 0 Calma 6 Sudeste 0 -- -- 81
2017-11-04 11:00:00 10.8 4 Este 9 Sudeste 0.2 -- -- 93
2017-11-04 10:00:00 9.6 2 Sur 4 Sudeste 0.4 -- -- 96
2017-11-04 09:00:00 8.9 0 Calma 4 Este 0 -- -- 97
2017-11-04 08:00:00 7.9 0 Calma 2 Sur 0 -- -- 97
2017-11-04 07:00:00 8 0 Calma 6 Sudeste 0.2 -- -- 97
2017-11-04 06:00:00 8.4 4 Este 8 Este 0 -- -- 97
2017-11-04 05:00:00 8 7 Este 10 Este 0 -- -- 97
2017-11-04 04:00:00 8.1 7 Este 11 Este 0.2 -- -- 96
2017-11-04 03:00:00 7.5 9 Este 12 Este 0 -- -- 95
2017-11-04 02:00:00 6.3 4 Sudeste 10 Este 0 -- -- 95
2017-11-04 01:00:00 5.3 6 Este 10 Sudeste 0 -- -- 97
2017-11-04 00:00:00 4.6 6 Este 10 Este 0 -- -- 96
2017-11-03 23:00:00 5 6 Este 10 Este 0 -- -- 95
2017-11-03 22:00:00 6.4 5 Este 10 Este 0 -- -- 92
2017-11-03 21:00:00 8.5 3 Este 8 Sudoeste 0 -- -- 86
2017-11-03 20:00:00 9.3 2 Sudeste 13 Este 0 -- -- 82
2017-11-03 19:00:00 9.1 3 Sudeste 8 Sudeste 0 -- -- 87
2017-11-03 18:00:00 14.1 3 Oeste 9 Oeste 0 -- -- 67
2017-11-03 17:00:00 16.6 9 Sur 17 Sudoeste 0 -- -- 55
2017-11-03 16:00:00 18.8 6 Sudoeste 13 Sudoeste 0 -- -- 50
2017-11-03 15:00:00 16.6 6 Oeste 20 Oeste 0 -- -- 57
2017-11-03 14:00:00 16.6 6 Oeste 19 Sur 0 -- -- 62
2017-11-03 13:00:00 15.7 10 Sudoeste 18 Sudoeste 0 -- -- 65
2017-11-03 12:00:00 14.6 0 Calma 10 Nordeste 0 -- -- 78
2017-11-03 11:00:00 12.3 4 Sudeste 9 Sudeste 0 -- -- 86
2017-11-03 10:00:00 10.9 4 Este 9 Este 0 -- -- 92
2017-11-03 09:00:00 10 4 Este 7 Este 0.2 -- -- 95
2017-11-03 08:00:00 7.5 6 Sudeste 16 Sudeste 0 -- -- 98
2017-11-03 07:00:00 8.6 5 Sur 12 Oeste 0.8 -- -- 98
2017-11-03 06:00:00 9 6 Oeste 45 Oeste 2.8 -- -- 96
2017-11-03 05:00:00 10.1 5 Sur 21 Sudoeste 1.8 -- -- 94
2017-11-03 04:00:00 9.5 2 Este 10 Este 0.2 -- -- 89
2017-11-03 03:00:00 9.8 9 Este 11 Este 0 -- -- 87
2017-11-03 02:00:00 10.1 5 Sudeste 8 Sudeste 0 -- -- 82
2017-11-03 01:00:00 10 6 Este 9 Este 0 -- -- 81
2017-11-03 00:00:00 9.1 4 Este 5 Este 0 -- -- 83
2017-11-02 23:00:00 9.4 0 Calma 8 Este 0 -- -- 81
2017-11-02 22:00:00 7.8 3 Este 8 Este 0 -- -- 84
2017-11-02 21:00:00 7.2 6 Este 13 Este 0 -- -- 82
2017-11-02 20:00:00 7.9 4 Este 5 Este 0 -- -- 79
2017-11-02 19:00:00 11.6 2 Nordeste 9 Sur 0 -- -- 66
2017-11-02 18:00:00 15.1 5 Sur 27 Sur 0 -- -- 58
2017-11-02 17:00:00 16.8 15 Sur 34 Sur 0 -- -- 53
2017-11-02 16:00:00 17.9 21 Sur 39 Sur 0 -- -- 50
2017-11-02 15:00:00 18.3 23 Sur 36 Sur 0 -- -- 51
2017-11-02 14:00:00 16.7 18 Sur 34 Sur 0 -- -- 57
2017-11-02 13:00:00 16.1 18 Sur 33 Sur 0 -- -- 61
2017-11-02 12:00:00 16.2 18 Sur 32 Sur 0 -- -- 60
2017-11-02 11:00:00 16.3 10 Sur 28 Sur 0 -- -- 60
2017-11-02 10:00:00 14.5 4 Este 9 Este 0 -- -- 68
2017-11-02 09:00:00 7.7 5 Este 8 Este 0 -- -- 89
2017-11-02 08:00:00 7.5 4 Este 8 Este 0 -- -- 90
2017-11-02 07:00:00 6 3 Este 7 Este 0 -- -- 94
2017-11-02 06:00:00 4.8 5 Este 9 Este 0 -- -- 92
2017-11-02 05:00:00 4.2 5 Este 12 Nordeste 0 -- -- 89
2017-11-02 04:00:00 4.4 6 Este 9 Este 0 -- -- 90
2017-11-02 03:00:00 4.7 6 Este 8 Este 0 -- -- 90
2017-11-02 02:00:00 4.7 5 Este 10 Este 0 -- -- 90
2017-11-02 01:00:00 4.9 8 Este 13 Este 0 -- -- 89
2017-11-02 00:00:00 5.3 5 Este 9 Este 0 -- -- 86
2017-11-01 23:00:00 6.4 4 Este 16 Sur 0 -- -- 84
2017-11-01 22:00:00 7.8 3 Sudeste 7 Este 0 -- -- 80
2017-11-01 21:00:00 11.5 4 Nordeste 13 Sur 0 -- -- 66
2017-11-01 20:00:00 15.3 11 Sur 28 Sudoeste 0 -- -- 58
2017-11-01 19:00:00 15.8 11 Sur 22 Sur 0 -- -- 56
2017-11-01 18:00:00 16.9 9 Sur 25 Sudoeste 0 -- -- 54
2017-11-01 17:00:00 19.6 15 Sudoeste 28 Sudoeste 0 -- -- 44
2017-11-01 16:00:00 20.6 14 Sur 28 Sur 0 -- -- 41
2017-11-01 15:00:00 21.3 12 Sur 27 Sur 0 -- -- 43
2017-11-01 14:00:00 20.9 12 Sudoeste 24 Sur 0 -- -- 40
2017-11-01 13:00:00 20.8 9 Sudeste 18 Sur 0 -- -- 36
2017-11-01 12:00:00 20.3 5 Sudoeste 12 Sudoeste 0 -- -- 40
2017-11-01 11:00:00 17.5 3 Nordeste 9 Este 0 -- -- 53
2017-11-01 10:00:00 12.1 4 Este 9 Este 0 -- -- 67
2017-11-01 09:00:00 5.4 5 Este 9 Este 0 -- -- 90
2017-11-01 08:00:00 -2 8 Este 9 Este 0 -- -- 97
2017-11-01 07:00:00 -1.6 5 Este 6 Este 0 -- -- 95
2017-11-01 06:00:00 -0.5 3 Este 9 Este 0 -- -- 97
2017-11-01 05:00:00 -1 6 Este 9 Este 0 -- -- 95
2017-11-01 04:00:00 -0.7 6 Este 8 Este 0 -- -- 96
2017-11-01 03:00:00 -0.1 6 Este 9 Este 0 -- -- 93
2017-11-01 02:00:00 0.7 5 Este 8 Este 0 -- -- 92
2017-11-01 01:00:00 1 5 Este 9 Este 0 -- -- 94
2017-11-01 00:00:00 1.5 6 Este 9 Este 0 -- -- 90
2017-10-31 23:00:00 1.2 2 Sudeste 8 Este 0 -- -- 90
2017-10-31 22:00:00 3.5 4 Este 9 Este 0 -- -- 86
2017-10-31 21:00:00 4.2 4 Este 7 Este 0 -- -- 85
2017-10-31 20:00:00 6.5 0 Calma 6 Nordeste 0 -- -- 78
2017-10-31 19:00:00 9.2 0 Calma 8 Oeste 0 -- -- 67
2017-10-31 18:00:00 15.9 5 Oeste 16 Oeste 0 -- -- 47
2017-10-31 17:00:00 18.6 11 Oeste 20 Oeste 0 -- -- 41
2017-10-31 16:00:00 19.2 11 Oeste 23 Oeste 0 -- -- 40
2017-10-31 15:00:00 18.8 11 Oeste 18 Noroeste 0 -- -- 43
2017-10-31 14:00:00 18.6 6 Sur 15 Sudeste 0 -- -- 46
2017-10-31 13:00:00 16.9 3 Este 12 Noroeste 0 -- -- 49
2017-10-31 12:00:00 15.1 3 Norte 8 Norte 0 -- -- 51
2017-10-31 11:00:00 11.7 4 Sudeste 8 Nordeste 0 -- -- 58
2017-10-31 10:00:00 9.2 4 Nordeste 9 Este 0 -- -- 67
2017-10-31 09:00:00 3.4 3 Sudeste 8 Este 0 -- -- 85
2017-10-31 08:00:00 -1.3 6 Este 14 Este 0 -- -- 93
2017-10-31 07:00:00 1.8 6 Este 12 Nordeste 0 -- -- 91
2017-10-31 06:00:00 1.6 9 Este 16 Nordeste 0 -- -- 91
2017-10-31 05:00:00 0.1 6 Este 15 Este 0 -- -- 92
2017-10-31 04:00:00 2.3 5 Este 16 Norte 0 -- -- 88
2017-10-31 03:00:00 3.7 14 Norte 21 Norte 0 -- -- 84
2017-10-31 02:00:00 3.3 8 Este 14 Este 0 -- -- 89
2017-10-31 01:00:00 4.5 7 Nordeste 24 Nordeste 0 -- -- 83
2017-10-31 00:00:00 6 19 Nordeste 26 Norte 0 -- -- 81
2017-10-30 23:00:00 6.9 18 Nordeste 28 Nordeste 0 -- -- 80
2017-10-30 22:00:00 7.8 20 Nordeste 34 Norte 0 -- -- 77
2017-10-30 21:00:00 9 27 Norte 39 Norte 0 -- -- 72
2017-10-30 20:00:00 10.1 24 Nordeste 37 Norte 0 -- -- 72
2017-10-30 19:00:00 11.6 26 Norte 37 Norte 0 -- -- 64
2017-10-30 18:00:00 13.8 24 Nordeste 37 Nordeste 0 -- -- 60
2017-10-30 17:00:00 16.5 28 Nordeste 40 Nordeste 0 -- -- 52
2017-10-30 16:00:00 16.9 28 Nordeste 39 Nordeste 0 -- -- 51
2017-10-30 15:00:00 17.5 25 Nordeste 37 Nordeste 0 -- -- 52
2017-10-30 14:00:00 17.2 23 Nordeste 38 Norte 0 -- -- 53
2017-10-30 13:00:00 17.2 23 Nordeste 34 Nordeste 0 -- -- 55
2017-10-30 12:00:00 13.9 17 Nordeste 27 Nordeste 0 -- -- 68
2017-10-30 11:00:00 8 0 Calma 4 Noroeste 0 -- -- 84
2017-10-30 10:00:00 4.9 2 Sur 4 Oeste 0 -- -- 96
2017-10-30 09:00:00 4 0 Calma 5 Este 0 -- -- 96
2017-10-30 08:00:00 -0.4 4 Este 5 Este 0 -- -- 100
2017-10-30 07:00:00 -1.1 4 Este 6 Este 0 -- -- 98
2017-10-30 06:00:00 0.7 0 Calma 3 Nordeste 0 -- -- 98
2017-10-30 05:00:00 3.3 3 Sudeste 7 Sur 0 -- -- 97
2017-10-30 04:00:00 6.7 6 Nordeste 22 Nordeste 0 -- -- 89
2017-10-30 03:00:00 8.1 17 Nordeste 27 Nordeste 0 -- -- 88
2017-10-30 02:00:00 8.2 17 Nordeste 26 Norte 0 -- -- 87
2017-10-30 01:00:00 8.5 19 Norte 24 Norte 0 -- -- 86
2017-10-30 00:00:00 8.3 14 Nordeste 28 Nordeste 0 -- -- 85
2017-10-29 23:00:00 9.2 19 Nordeste 37 Nordeste 0 -- -- 83
2017-10-29 22:00:00 9.7 27 Nordeste 42 Norte 0 -- -- 80
2017-10-29 21:00:00 9.6 26 Norte 38 Norte 0 -- -- 80
2017-10-29 20:00:00 10.4 26 Norte 44 Norte 0 -- -- 75
2017-10-29 19:00:00 12.2 28 Norte 38 Nordeste 0 -- -- 66
2017-10-29 18:00:00 14.8 20 Norte 28 Norte 0 -- -- 55
2017-10-29 17:00:00 18.8 21 Norte 28 Norte 0 -- -- 40
2017-10-29 16:00:00 20.8 18 Nordeste 26 Nordeste 0 -- -- 29
2017-10-29 15:00:00 21.2 14 Nordeste 24 Norte 0 -- -- 27
2017-10-29 14:00:00 19.7 12 Nordeste 25 Norte 0 -- -- 32
2017-10-29 13:00:00 17.9 10 Norte 17 Norte 0 -- -- 37
2017-10-29 12:00:00 14.2 2 Sudoeste 7 Sudeste 0 -- -- 57
2017-10-29 11:00:00 9.6 3 Sudeste 8 Sudeste 0 -- -- 93
2017-10-29 10:00:00 3.7 3 Este 7 Sudeste 0 -- -- 98
2017-10-29 09:00:00 0.7 0 Calma 3 Sudeste 0 -- -- 99
2017-10-29 08:00:00 -1.2 0 Calma 4 Este 0 -- -- 99
2017-10-29 07:00:00 -2.2 0 Calma 6 Este 0 -- -- 98
2017-10-29 06:00:00 -2.4 2 Este 3 Sudeste 0 -- -- 99
2017-10-29 05:00:00 -1.8 0 Calma 3 Este 0 -- -- 96
2017-10-29 04:00:00 -0.1 0 Calma 3 Sur 0 -- -- 96
2017-10-29 03:00:00 1.9 0 Calma 4 Nordeste 0 -- -- 95
2017-10-29 02:00:00 3.9 3 Sudeste 12 Sudeste 0 -- -- 91
2017-10-29 01:00:00 7.5 5 Este 24 Nordeste 0 -- -- 82
2017-10-29 00:00:00 9.7 20 Nordeste 37 Norte 0 -- -- 75
2017-10-28 23:00:00 10.3 27 Norte 35 Norte 0 -- -- 73
2017-10-28 22:00:00 10.9 20 Norte 27 Nordeste 0 -- -- 72
2017-10-28 21:00:00 12 16 Nordeste 35 Norte 0 -- -- 67
2017-10-28 20:00:00 13.3 16 Norte 30 Norte 0 -- -- 60
2017-10-28 19:00:00 15.8 15 Norte 26 Nordeste 0 -- -- 52
2017-10-28 18:00:00 19.4 17 Norte 29 Nordeste 0 -- -- 42
2017-10-28 17:00:00 20.1 21 Norte 32 Norte 0 -- -- 41
2017-10-28 16:00:00 20.4 22 Norte 34 Norte 0 -- -- 42
2017-10-28 15:00:00 21 14 Norte 28 Norte 0 -- -- 41
2017-10-28 14:00:00 20.6 10 Nordeste 22 Norte 0 -- -- 45
2017-10-28 13:00:00 18.2 11 Este 22 Nordeste 0 -- -- 54
2017-10-28 12:00:00 15.7 6 Este 15 Este 0 -- -- 67
2017-10-28 11:00:00 13.8 0 Calma 5 Sudeste 0 -- -- 70
2017-10-28 10:00:00 7.3 4 Este 6 Sudeste 0 -- -- 95
2017-10-28 09:00:00 2.3 0 Calma 3 Este 0 -- -- 97
2017-10-28 08:00:00 4.9 0 Calma 4 Sur 0 -- -- 97
2017-10-28 07:00:00 6.4 4 Sudeste 11 Sudeste 0 -- -- 96
2017-10-28 06:00:00 8.4 5 Este 21 Norte 0 -- -- 90
2017-10-28 05:00:00 9.2 14 Nordeste 23 Nordeste 0 -- -- 87
2017-10-28 04:00:00 10 15 Nordeste 23 Norte 0 -- -- 85
2017-10-28 03:00:00 10.1 14 Nordeste 22 Norte 0 -- -- 87
2017-10-28 02:00:00 8.5 7 Nordeste 12 Nordeste 0 -- -- 95
2017-10-28 01:00:00 5.2 0 Calma 5 Sudeste 0 -- -- 94
2017-10-28 00:00:00 8.2 3 Este 11 Nordeste 0 -- -- 89
2017-10-27 23:00:00 9.2 5 Este 12 Nordeste 0 -- -- 80
2017-10-27 22:00:00 13.4 12 Nordeste 21 Nordeste 0 -- -- 63
2017-10-27 21:00:00 15.1 15 Nordeste 22 Nordeste 0 -- -- 52
2017-10-27 20:00:00 16.6 14 Nordeste 19 Nordeste 0 -- -- 43
2017-10-27 19:00:00 21.3 7 Norte 19 Noroeste 0 -- -- 39
2017-10-27 18:00:00 24.3 13 Norte 23 Norte 0 -- -- 33
2017-10-27 17:00:00 25.6 16 Norte 23 Noroeste 0 -- -- 30
2017-10-27 16:00:00 26.1 8 Norte 18 Noroeste 0 -- -- 31
2017-10-27 15:00:00 25.8 5 Nordeste 13 Nordeste 0 -- -- 32
2017-10-27 14:00:00 25.1 7 Norte 14 Nordeste 0 -- -- 33
2017-10-27 13:00:00 24.4 2 Sudoeste 5 Sur 0 -- -- 36
2017-10-27 12:00:00 19.5 0 Calma 5 Sur 0 -- -- 41
2017-10-27 11:00:00 14.3 0 Calma 4 Este 0 -- -- 60
2017-10-27 10:00:00 7 0 Calma 8 Este 0 -- -- 86
2017-10-27 09:00:00 1.2 4 Este 5 Este 0 -- -- 96
2017-10-27 08:00:00 1.3 0 Calma 3 Sudeste 0 -- -- 97
2017-10-27 07:00:00 1.5 0 Calma 3 Este 0 -- -- 94
2017-10-27 06:00:00 2.4 2 Sudeste 4 Sudeste 0 -- -- 93
2017-10-27 05:00:00 2.1 3 Sudeste 6 Este 0 -- -- 92
2017-10-27 04:00:00 3 5 Este 8 Este 0 -- -- 91
2017-10-27 03:00:00 3.2 6 Este 8 Este 0 -- -- 91
2017-10-27 02:00:00 3.9 2 Sudeste 7 Este 0 -- -- 89
2017-10-27 01:00:00 5 3 Este 5 Este 0 -- -- 85
2017-10-27 00:00:00 5.3 5 Sudeste 8 Sudeste 0 -- -- 85
2017-10-26 23:00:00 6.6 5 Este 8 Este 0 -- -- 80
2017-10-26 22:00:00 7.6 7 Este 12 Este 0 -- -- 75
2017-10-26 21:00:00 12.8 3 Sudeste 11 Nordeste 0 -- -- 56
2017-10-26 20:00:00 17.1 2 Nordeste 8 Este 0 -- -- 43
2017-10-26 19:00:00 22.2 4 Nordeste 10 Nordeste 0 -- -- 35
2017-10-26 18:00:00 26.6 3 Noroeste 11 Noroeste 0 -- -- 24
2017-10-26 17:00:00 27 5 Sudoeste 13 Noroeste 0 -- -- 24
2017-10-26 16:00:00 26.3 6 Noroeste 12 Noroeste 0 -- -- 26
2017-10-26 15:00:00 25.6 6 Noroeste 12 Noroeste 0 -- -- 28
2017-10-26 14:00:00 25.8 3 Norte 10 Nordeste 0 -- -- 29
2017-10-26 13:00:00 23.5 4 Sudeste 9 Este 0 -- -- 36
2017-10-26 12:00:00 20.3 4 Este 8 Este 0 -- -- 46
2017-10-26 11:00:00 14.9 5 Sudeste 8 Este 0 -- -- 61
2017-10-26 10:00:00 8.7 5 Este 8 Este 0 -- -- 80
2017-10-26 09:00:00 1.3 4 Este 10 Este 0 -- -- 95
2017-10-26 08:00:00 0.7 4 Este 7 Este 0 -- -- 95
2017-10-26 07:00:00 1.3 3 Este 8 Este 0 -- -- 95
2017-10-26 06:00:00 1.4 4 Este 7 Este 0 -- -- 94
2017-10-26 05:00:00 2 4 Este 9 Este 0 -- -- 94
2017-10-26 04:00:00 2.5 4 Este 6 Sudeste 0 -- -- 94
2017-10-26 03:00:00 3 5 Sudeste 7 Este 0 -- -- 89
2017-10-26 02:00:00 3.9 3 Este 7 Este 0 -- -- 91
2017-10-26 01:00:00 4.4 5 Sudeste 8 Sudeste 0 -- -- 85
2017-10-26 00:00:00 6.9 0 Calma 9 Este 0 -- -- 81
2017-10-25 23:00:00 8 5 Este 9 Este 0 -- -- 76
2017-10-25 22:00:00 8.7 5 Este 9 Este 0 -- -- 75
2017-10-25 21:00:00 9.6 4 Sudeste 6 Este 0 -- -- 72
2017-10-25 20:00:00 15.5 0 Calma 9 Sur 0 -- -- 53
2017-10-25 19:00:00 23.2 4 Este 11 Nordeste 0 -- -- 35
2017-10-25 18:00:00 27.8 5 Nordeste 13 Nordeste 0 -- -- 26
2017-10-25 17:00:00 28.3 4 Norte 15 Nordeste 0 -- -- 26
2017-10-25 16:00:00 28 2 Nordeste 12 Este 0 -- -- 27
2017-10-25 15:00:00 25.8 5 Sudeste 10 Nordeste 0 -- -- 28
2017-10-25 14:00:00 24.8 8 Este 12 Este 0 -- -- 31
2017-10-25 13:00:00 23.4 4 Sudeste 9 Nordeste 0 -- -- 33
2017-10-25 12:00:00 21.7 3 Nordeste 8 Este 0 -- -- 37
2017-10-25 11:00:00 16.2 4 Este 6 Este 0 -- -- 57
2017-10-25 10:00:00 9.3 0 Calma 6 Sudeste 0 -- -- 79
2017-10-25 09:00:00 2.1 3 Este 5 Este 0 -- -- 97
2017-10-25 08:00:00 1 2 Este 5 Este 0 -- -- 98
2017-10-25 07:00:00 1.5 5 Este 8 Este 0 -- -- 97
2017-10-25 06:00:00 1.9 5 Este 9 Este 0 -- -- 96
2017-10-25 05:00:00 2.1 4 Este 6 Este 0 -- -- 95
2017-10-25 04:00:00 2.6 4 Sudeste 8 Este 0 -- -- 94
2017-10-25 03:00:00 2.6 5 Este 6 Este 0 -- -- 93
2017-10-25 02:00:00 3.8 0 Calma 4 Sudeste 0 -- -- 91
2017-10-25 01:00:00 4.8 3 Sudeste 8 Este 0 -- -- 88
2017-10-25 00:00:00 6.1 2 Sudeste 9 Este 0 -- -- 83